Neyland, United Kingdom
Current Conditions -  °F | °C
As of 9:50 PM on Friday 31 Oct 2014 (Local Time) from EGOP Reporting Station
Broken Clouds Broken Clouds  
Wind Chill: 14°   Ceiling: 6000
Heat Index: 14°   Visibility: 6mi
Dew Point: 14°   Wind: 15mph
Humidity: 100%   Direction: 220°SW
Pressure: 29.85"   Gusts: NA
Location:  51.71°N, 4.95°W
Report Text: EGOP 312150Z AUTO 22013KT 9000 // BKN060/// 14/14 Q1011
Loading
Personal Weather Stations






























Interactive Weather Map
Tropical Storm Tracking
New forecast layout! Learn more

10-Day Weather Forecast

Advertisements
Track Severe Weather on mobile